createdAt,value
2019-05-23T00:00:01.202Z,5.67
2019-05-23T00:02:41.963Z,6.17
2019-05-23T00:05:19.660Z,6.37
2019-05-23T00:07:49.011Z,6.50
2019-05-23T00:10:25.121Z,5.87
2019-05-23T00:13:01.285Z,6.23
2019-05-23T00:15:36.040Z,5.70
2019-05-23T00:18:06.003Z,6.17
2019-05-23T00:20:35.797Z,6.08
2019-05-23T00:23:07.101Z,6.00
2019-05-23T00:25:36.771Z,7.22
2019-05-23T00:28:07.003Z,6.30
2019-05-23T00:30:53.924Z,6.97
2019-05-23T00:33:27.930Z,7.23
2019-05-23T00:35:57.514Z,6.60
2019-05-23T00:38:26.875Z,5.80
2019-05-23T00:40:56.127Z,6.42
2019-05-23T00:43:25.652Z,6.30
2019-05-23T00:45:55.433Z,6.53
2019-05-23T00:48:24.977Z,6.40
2019-05-23T00:50:54.238Z,6.50
2019-05-23T00:53:24.478Z,6.07
2019-05-23T00:55:54.550Z,6.45
2019-05-23T00:58:25.345Z,5.90
2019-05-23T01:00:56.342Z,5.73
2019-05-23T01:03:27.933Z,6.60
2019-05-23T01:05:57.251Z,6.03
2019-05-23T01:08:26.661Z,6.30
2019-05-23T01:10:56.162Z,6.03
2019-05-23T01:13:27.203Z,6.10
2019-05-23T01:15:56.033Z,6.30
2019-05-23T01:18:25.246Z,6.67
2019-05-23T01:21:12.043Z,6.47
2019-05-23T01:23:44.765Z,6.00
2019-05-23T01:26:14.842Z,6.50
2019-05-23T01:28:44.368Z,6.40
2019-05-23T01:31:18.315Z,6.07
2019-05-23T01:33:49.505Z,6.78
2019-05-23T01:36:20.169Z,7.07
2019-05-23T01:38:49.309Z,7.03
2019-05-23T01:41:18.475Z,7.00
2019-05-23T01:43:49.534Z,5.90
2019-05-23T01:46:18.996Z,6.90
2019-05-23T01:48:49.239Z,6.97
2019-05-23T01:51:18.599Z,6.47
2019-05-23T01:53:48.387Z,6.13
2019-05-23T01:56:17.456Z,7.70
2019-05-23T01:58:46.885Z,7.63
2019-05-23T02:01:15.819Z,7.30
2019-05-23T02:03:46.318Z,7.17
2019-05-23T02:06:15.290Z,8.43
2019-05-23T02:08:44.365Z,6.63
2019-05-23T02:11:13.441Z,7.30
2019-05-23T02:13:43.962Z,6.93
2019-05-23T02:16:14.884Z,6.33
2019-05-23T02:18:45.767Z,7.50
2019-05-23T02:21:19.230Z,6.60
2019-05-23T02:23:48.914Z,7.42
2019-05-23T02:26:22.247Z,6.50
2019-05-23T02:28:52.519Z,7.90
2019-05-23T02:31:22.155Z,7.47
2019-05-23T02:33:51.381Z,7.20
2019-05-23T02:36:21.401Z,7.30
2019-05-23T02:39:01.026Z,7.80
2019-05-23T02:41:52.879Z,8.80
2019-05-23T02:44:24.448Z,8.20
2019-05-23T02:47:16.986Z,8.30
2019-05-23T02:49:49.135Z,8.40
2019-05-23T02:52:46.296Z,8.97
2019-05-23T02:55:27.692Z,8.30
2019-05-23T02:58:01.205Z,9.27
2019-05-23T03:00:54.190Z,8.20
2019-05-23T03:03:24.717Z,8.60
2019-05-23T03:05:55.521Z,8.50
2019-05-23T03:08:25.499Z,8.17
2019-05-23T03:11:17.353Z,8.30
2019-05-23T03:13:48.394Z,9.40
2019-05-23T03:16:21.932Z,8.87
2019-05-23T03:18:57.818Z,9.80
2019-05-23T03:21:26.714Z,8.67
2019-05-23T03:23:58.308Z,9.40
2019-05-23T03:27:10.019Z,8.57
2019-05-23T03:29:43.691Z,8.53
2019-05-23T03:32:36.897Z,8.97
2019-05-23T03:35:06.346Z,9.03
2019-05-23T03:37:36.561Z,9.70
2019-05-23T03:40:05.687Z,9.07
2019-05-23T03:42:34.982Z,9.20
2019-05-23T03:45:05.383Z,9.67
2019-05-23T03:47:34.675Z,9.60
2019-05-23T03:50:05.171Z,10.13
2019-05-23T03:52:35.126Z,10.08
2019-05-23T03:55:05.663Z,9.77
2019-05-23T03:57:34.572Z,10.20
2019-05-23T04:00:03.589Z,9.23
2019-05-23T04:02:32.366Z,9.63
2019-05-23T04:05:01.786Z,10.07
2019-05-23T04:07:31.948Z,10.03
2019-05-23T04:10:01.274Z,9.90
2019-05-23T04:12:30.510Z,10.00
2019-05-23T04:14:59.442Z,9.90
2019-05-23T04:17:28.272Z,10.47
2019-05-23T04:19:57.110Z,10.33
2019-05-23T04:22:26.722Z,9.93
2019-05-23T04:24:55.961Z,9.80
2019-05-23T04:27:25.149Z,10.35
2019-05-23T04:29:54.168Z,10.33
2019-05-23T04:32:23.243Z,10.30
2019-05-23T04:34:52.582Z,10.70
2019-05-23T04:37:22.061Z,10.80
2019-05-23T04:39:51.314Z,11.20
2019-05-23T04:42:20.338Z,10.77
2019-05-23T04:44:49.662Z,11.50
2019-05-23T04:47:19.692Z,12.93
2019-05-23T04:49:48.451Z,11.07
2019-05-23T04:52:17.600Z,11.23
2019-05-23T04:54:46.683Z,12.03
2019-05-23T04:57:16.647Z,14.17
2019-05-23T04:59:46.651Z,11.40
2019-05-23T05:02:25.686Z,12.00
2019-05-23T05:04:46.541Z,12.27
2019-05-23T05:07:15.733Z,13.53
2019-05-23T05:09:46.599Z,12.70
2019-05-23T05:12:17.149Z,12.83
2019-05-23T05:14:46.015Z,13.47
2019-05-23T05:17:14.826Z,13.40
2019-05-23T05:19:43.667Z,12.80
2019-05-23T05:22:12.638Z,13.22
2019-05-23T05:24:41.369Z,14.50
2019-05-23T05:27:10.930Z,13.87
2019-05-23T05:29:40.139Z,14.60
2019-05-23T05:32:10.275Z,13.93
2019-05-23T05:34:39.473Z,14.40
2019-05-23T05:37:08.372Z,14.83
2019-05-23T05:39:37.141Z,14.50
2019-05-23T05:42:08.574Z,14.90
2019-05-23T05:44:38.405Z,14.55
2019-05-23T05:47:08.792Z,15.00
2019-05-23T05:49:41.944Z,13.73
2019-05-23T05:52:08.524Z,15.33
2019-05-23T05:54:37.490Z,14.67
2019-05-23T05:57:06.564Z,14.27
2019-05-23T05:59:35.672Z,15.10
2019-05-23T06:02:08.177Z,15.17
2019-05-23T06:04:37.493Z,14.43
2019-05-23T06:07:25.271Z,14.10
2019-05-23T06:09:54.804Z,12.50
2019-05-23T06:12:23.869Z,13.47
2019-05-23T06:14:52.906Z,13.60
2019-05-23T06:17:23.406Z,14.53
2019-05-23T06:19:52.487Z,13.20
2019-05-23T06:22:22.324Z,14.30
2019-05-23T06:24:54.295Z,13.70
2019-05-23T06:27:22.423Z,13.38
2019-05-23T06:29:51.341Z,12.30
2019-05-23T06:32:22.198Z,13.57
2019-05-23T06:34:52.473Z,11.90
2019-05-23T06:37:22.229Z,12.17
2019-05-23T06:39:51.219Z,12.83
2019-05-23T06:42:20.290Z,12.10
2019-05-23T06:44:51.603Z,12.17
2019-05-23T06:47:20.739Z,13.20
2019-05-23T06:49:49.547Z,10.90
2019-05-23T06:52:21.514Z,11.20
2019-05-23T06:54:50.301Z,11.30
2019-05-23T06:57:19.653Z,12.30
2019-05-23T06:59:48.833Z,10.10
2019-05-23T07:02:17.962Z,11.20
2019-05-23T07:04:48.117Z,10.70
2019-05-23T07:07:17.416Z,9.87
2019-05-23T07:09:47.454Z,10.03
2019-05-23T07:12:16.587Z,9.60
2019-05-23T07:14:45.492Z,7.40
2019-05-23T07:17:17.857Z,9.00
2019-05-23T07:19:47.062Z,3.80
2019-05-23T07:22:19.019Z,4.63
2019-05-23T07:24:57.326Z,5.67
2019-05-23T07:27:18.757Z,5.57
2019-05-23T07:29:47.645Z,5.43
2019-05-23T07:32:16.581Z,7.10
2019-05-23T07:34:45.582Z,8.67
2019-05-23T07:37:14.651Z,9.43
2019-05-23T07:39:43.379Z,11.77
2019-05-23T07:42:12.633Z,12.20
2019-05-23T07:44:48.210Z,12.40
2019-05-23T07:47:13.370Z,12.53
2019-05-23T07:49:42.311Z,13.43
2019-05-23T07:52:11.071Z,14.10
2019-05-23T07:54:48.638Z,12.67
2019-05-23T07:57:18.067Z,13.03
2019-05-23T07:59:47.513Z,13.30
2019-05-23T08:02:28.720Z,14.30
2019-05-23T08:04:58.179Z,14.20
2019-05-23T08:07:32.500Z,13.60
2019-05-23T08:09:59.137Z,14.70
2019-05-23T08:12:28.190Z,15.43
2019-05-23T08:14:57.098Z,14.90
2019-05-23T08:17:26.084Z,15.43
2019-05-23T08:19:55.192Z,14.63
2019-05-23T08:22:25.502Z,15.20
2019-05-23T08:24:54.507Z,15.00
2019-05-23T08:27:23.670Z,13.53
2019-05-23T08:29:52.830Z,13.23
2019-05-23T08:32:21.957Z,16.70
2019-05-23T08:34:51.030Z,17.23
2019-05-23T08:37:20.267Z,17.87
2019-05-23T08:39:50.064Z,18.20
2019-05-23T08:42:20.651Z,17.23
2019-05-23T08:44:49.537Z,19.17
2019-05-23T08:47:18.613Z,19.30
2019-05-23T08:49:47.418Z,17.73
2019-05-23T08:52:16.328Z,15.77
2019-05-23T08:54:45.514Z,17.02
2019-05-23T08:57:15.032Z,21.53
2019-05-23T08:59:44.665Z,22.73
2019-05-23T09:02:14.655Z,19.87
2019-05-23T09:05:02.150Z,20.37
2019-05-23T09:07:14.714Z,20.40
2019-05-23T09:09:43.804Z,20.03
2019-05-23T09:12:12.626Z,21.55
2019-05-23T09:14:41.639Z,20.07
2019-05-23T09:17:10.765Z,21.48
2019-05-23T09:19:40.388Z,20.50
2019-05-23T09:22:09.394Z,21.67
2019-05-23T09:24:38.546Z,18.87
2019-05-23T09:27:08.960Z,21.50
2019-05-23T09:29:38.886Z,21.63
2019-05-23T09:32:09.081Z,19.90
2019-05-23T09:34:38.124Z,19.47
2019-05-23T09:37:08.164Z,19.00
2019-05-23T09:39:38.808Z,19.00
2019-05-23T09:42:11.764Z,17.07
2019-05-23T09:44:38.539Z,16.03
2019-05-23T09:47:07.543Z,16.57
2019-05-23T09:49:36.603Z,15.20
2019-05-23T09:52:05.983Z,18.30
2019-05-23T09:54:35.009Z,17.33
2019-05-23T09:57:05.484Z,16.07
2019-05-23T09:59:34.373Z,17.50
2019-05-23T10:02:05.012Z,17.62
2019-05-23T10:04:33.978Z,14.90
2019-05-23T10:07:03.086Z,14.57
2019-05-23T10:09:31.922Z,10.63
2019-05-23T10:12:01.138Z,11.37
2019-05-23T10:14:33.383Z,8.27
2019-05-23T10:17:02.194Z,8.73
2019-05-23T10:19:31.298Z,10.30
2019-05-23T10:22:00.155Z,13.53
2019-05-23T10:24:29.317Z,14.60
2019-05-23T10:26:58.302Z,13.37
2019-05-23T10:29:27.088Z,6.87
2019-05-23T10:31:55.859Z,7.00
2019-05-23T10:34:24.724Z,8.00
2019-05-23T10:36:53.895Z,7.50
2019-05-23T10:39:23.150Z,9.63
2019-05-23T10:41:52.468Z,10.70
2019-05-23T10:44:21.799Z,8.70
2019-05-23T10:46:50.572Z,7.47
2019-05-23T10:49:19.684Z,9.50
2019-05-23T10:51:48.569Z,9.10
2019-05-23T10:54:17.408Z,9.00
2019-05-23T10:56:46.142Z,9.17
2019-05-23T10:59:15.573Z,8.70
2019-05-23T11:01:45.365Z,8.53
2019-05-23T11:04:14.415Z,9.67
2019-05-23T11:06:43.651Z,9.80
2019-05-23T11:09:12.449Z,9.90
2019-05-23T11:11:41.520Z,8.00
2019-05-23T11:14:11.662Z,6.90
2019-05-23T11:16:41.143Z,6.67
2019-05-23T11:19:10.260Z,7.47
2019-05-23T11:21:39.229Z,6.70
2019-05-23T11:24:10.853Z,5.33
2019-05-23T11:26:39.975Z,5.53
2019-05-23T11:29:08.805Z,6.10
2019-05-23T11:31:37.631Z,6.57
2019-05-23T11:34:06.742Z,6.00
2019-05-23T11:36:36.889Z,4.23
2019-05-23T11:39:08.135Z,3.70
2019-05-23T11:41:37.109Z,2.90
2019-05-23T11:44:06.459Z,4.00
2019-05-23T11:46:36.086Z,4.53
2019-05-23T11:49:06.399Z,3.90
2019-05-23T11:51:35.750Z,4.30
2019-05-23T11:54:08.415Z,3.90
2019-05-23T11:56:37.062Z,4.10
2019-05-23T11:59:06.587Z,4.10
2019-05-23T12:01:40.707Z,3.50
2019-05-23T12:04:12.758Z,5.37
2019-05-23T12:07:06.233Z,6.03
2019-05-23T12:09:36.603Z,6.60
2019-05-23T12:12:05.583Z,6.30
2019-05-23T12:14:34.677Z,6.30
2019-05-23T12:17:03.537Z,7.10
2019-05-23T12:19:32.516Z,7.33
2019-05-23T12:22:01.387Z,6.43
2019-05-23T12:24:34.440Z,6.50
2019-05-23T12:27:03.723Z,5.90
2019-05-23T12:29:32.486Z,5.37
2019-05-23T12:32:01.744Z,6.20
2019-05-23T12:34:30.533Z,5.87
2019-05-23T12:37:18.583Z,6.57
2019-05-23T12:39:30.414Z,6.50
2019-05-23T12:41:59.397Z,6.85
2019-05-23T12:44:28.358Z,7.10
2019-05-23T12:46:57.400Z,6.90
2019-05-23T12:49:39.386Z,6.50
2019-05-23T12:52:10.310Z,7.20
2019-05-23T12:54:39.566Z,6.73
2019-05-23T12:57:11.601Z,6.77
2019-05-23T12:59:40.338Z,7.07
2019-05-23T13:02:12.771Z,7.63
2019-05-23T13:04:41.898Z,5.53
2019-05-23T13:07:11.882Z,6.80
2019-05-23T13:09:41.566Z,6.63
2019-05-23T13:12:10.612Z,6.50
2019-05-23T13:14:39.680Z,6.77
2019-05-23T13:17:09.014Z,6.90
2019-05-23T13:19:38.289Z,6.97
2019-05-23T13:22:09.540Z,6.23
2019-05-23T13:24:51.975Z,6.80
2019-05-23T13:27:09.674Z,7.33
2019-05-23T13:29:39.113Z,7.13
2019-05-23T13:32:08.410Z,7.07
2019-05-23T13:34:37.981Z,7.00
2019-05-23T13:37:09.026Z,7.07
2019-05-23T13:39:38.141Z,8.00
2019-05-23T13:42:07.035Z,6.58
2019-05-23T13:44:36.465Z,8.17
2019-05-23T13:47:05.939Z,7.22
2019-05-23T13:49:34.835Z,8.10
2019-05-23T13:52:04.964Z,8.10
2019-05-23T13:54:36.684Z,8.70
2019-05-23T13:57:08.613Z,8.90
2019-05-23T13:59:40.532Z,8.00
2019-05-23T14:02:09.935Z,7.17
2019-05-23T14:04:39.146Z,7.70
2019-05-23T14:07:11.504Z,9.10
2019-05-23T14:09:40.421Z,7.13
2019-05-23T14:12:24.742Z,9.10
2019-05-23T14:14:40.091Z,8.27
2019-05-23T14:17:30.231Z,7.97
2019-05-23T14:19:59.253Z,8.20
2019-05-23T14:22:29.154Z,8.00
2019-05-23T14:24:58.100Z,8.15
2019-05-23T14:27:35.594Z,9.63
2019-05-23T14:30:12.615Z,9.07
2019-05-23T14:32:47.025Z,9.30
2019-05-23T14:35:19.089Z,9.27
2019-05-23T14:37:49.803Z,8.80
2019-05-23T14:40:19.439Z,10.00
2019-05-23T14:43:03.498Z,7.83
2019-05-23T14:45:39.867Z,8.90
2019-05-23T14:48:14.795Z,8.60
2019-05-23T14:51:06.011Z,8.00
2019-05-23T14:53:36.798Z,8.30
2019-05-23T14:56:07.438Z,7.93
2019-05-23T14:58:36.820Z,7.77
2019-05-23T15:01:10.405Z,8.77
2019-05-23T15:03:41.982Z,8.63
2019-05-23T15:06:10.719Z,8.30
2019-05-23T15:08:50.529Z,9.50
2019-05-23T15:11:11.231Z,8.87
2019-05-23T15:13:40.527Z,8.60
2019-05-23T15:16:10.362Z,8.87
2019-05-23T15:18:39.448Z,8.97
2019-05-23T15:21:08.468Z,7.60
2019-05-23T15:23:37.316Z,8.83
2019-05-23T15:26:21.627Z,8.73
2019-05-23T15:28:37.517Z,9.27
2019-05-23T15:31:07.116Z,8.70
2019-05-23T15:33:35.906Z,14.50
2019-05-23T15:36:04.922Z,9.00
2019-05-23T15:38:34.570Z,14.67
2019-05-23T15:41:03.618Z,66.03
2019-05-23T15:43:33.015Z,46.80
2019-05-23T15:46:01.870Z,10.43
2019-05-23T15:48:31.516Z,9.28
2019-05-23T15:51:00.330Z,10.47
2019-05-23T15:53:36.558Z,10.03
2019-05-23T15:56:30.512Z,9.53
2019-05-23T15:59:14.468Z,9.63
2019-05-23T16:01:53.918Z,10.10
2019-05-23T16:04:23.022Z,7.33
2019-05-23T16:06:52.447Z,6.90
2019-05-23T16:09:29.595Z,7.40
2019-05-23T16:11:53.287Z,8.03
2019-05-23T16:14:23.603Z,7.57
2019-05-23T16:16:56.258Z,9.63
2019-05-23T16:19:23.547Z,8.90
2019-05-23T16:21:55.596Z,10.77
2019-05-23T16:24:25.586Z,9.37
2019-05-23T16:26:54.392Z,8.67
2019-05-23T16:29:23.907Z,9.17
2019-05-23T16:31:54.142Z,8.43
2019-05-23T16:34:23.327Z,8.80
2019-05-23T16:36:52.336Z,8.40
2019-05-23T16:39:21.863Z,9.00
2019-05-23T16:41:50.769Z,8.70
2019-05-23T16:44:19.586Z,9.20
2019-05-23T16:46:48.643Z,8.97
2019-05-23T16:49:17.879Z,9.47
2019-05-23T16:51:46.691Z,8.90
2019-05-23T16:54:17.526Z,9.65
2019-05-23T16:56:53.984Z,8.70
2019-05-23T16:59:32.980Z,7.90
2019-05-23T17:02:12.432Z,9.40
2019-05-23T17:05:09.735Z,8.07
2019-05-23T17:07:43.015Z,8.20
2019-05-23T17:10:20.799Z,9.27
2019-05-23T17:12:58.234Z,8.98
2019-05-23T17:15:47.649Z,8.27
2019-05-23T17:18:34.714Z,10.50
2019-05-23T17:21:19.635Z,8.67
2019-05-23T17:23:58.207Z,8.50
2019-05-23T17:26:49.220Z,8.20
2019-05-23T17:29:25.946Z,8.73
2019-05-23T17:31:56.266Z,8.80
2019-05-23T17:34:25.122Z,8.67
2019-05-23T17:36:54.279Z,7.50
2019-05-23T17:39:24.076Z,10.07
2019-05-23T17:41:53.587Z,9.43
2019-05-23T17:44:22.487Z,9.33
2019-05-23T17:46:51.247Z,8.23
2019-05-23T17:49:20.174Z,8.50
2019-05-23T17:51:49.134Z,8.70
2019-05-23T17:54:18.608Z,10.00
2019-05-23T17:56:47.786Z,9.70
2019-05-23T17:59:17.071Z,9.37
2019-05-23T18:01:46.281Z,8.90
2019-05-23T18:04:17.213Z,7.78
2019-05-23T18:06:46.980Z,7.33
2019-05-23T18:09:16.270Z,6.85
2019-05-23T18:11:45.905Z,6.90
2019-05-23T18:14:15.445Z,6.57
2019-05-23T18:16:44.371Z,7.90
2019-05-23T18:19:13.310Z,6.93
2019-05-23T18:21:43.753Z,6.87
2019-05-23T18:24:15.031Z,7.07
2019-05-23T18:26:43.865Z,7.30
2019-05-23T18:29:14.755Z,6.20
2019-05-23T18:31:45.445Z,6.57
2019-05-23T18:34:15.121Z,6.40
2019-05-23T18:36:43.937Z,6.67
2019-05-23T18:39:16.294Z,6.77
2019-05-23T18:41:45.698Z,7.27
2019-05-23T18:44:14.947Z,8.27
2019-05-23T18:46:47.250Z,7.73
2019-05-23T18:49:16.339Z,30.52
2019-05-23T18:51:45.677Z,47.73
2019-05-23T18:54:14.522Z,21.37
2019-05-23T18:56:43.344Z,11.70
2019-05-23T18:59:13.425Z,9.20
2019-05-23T19:01:42.606Z,11.37
2019-05-23T19:04:12.079Z,11.27
2019-05-23T19:06:41.250Z,9.53
2019-05-23T19:09:14.016Z,8.10
2019-05-23T19:11:43.098Z,24.35
2019-05-23T19:14:11.887Z,17.17
2019-05-23T19:16:41.406Z,50.70
2019-05-23T19:19:10.563Z,65.80
2019-05-23T19:21:39.526Z,43.60
2019-05-23T19:24:08.447Z,12.10
2019-05-23T19:26:37.471Z,9.10
2019-05-23T19:29:07.666Z,18.60
2019-05-23T19:31:37.379Z,23.03
2019-05-23T19:34:06.259Z,55.23
2019-05-23T19:36:35.084Z,11.00
2019-05-23T19:39:06.294Z,7.40
2019-05-23T19:41:37.886Z,7.67
2019-05-23T19:44:06.186Z,10.60
2019-05-23T19:46:35.865Z,9.30
2019-05-23T19:49:05.954Z,11.00
2019-05-23T19:51:37.243Z,15.83
2019-05-23T19:54:07.171Z,33.73
2019-05-23T19:56:36.926Z,14.30
2019-05-23T19:59:07.036Z,9.90
2019-05-23T20:01:47.184Z,8.93
2019-05-23T20:04:16.567Z,8.18
2019-05-23T20:06:46.726Z,8.63
2019-05-23T20:09:19.962Z,11.03
2019-05-23T20:11:54.546Z,13.20
2019-05-23T20:14:20.936Z,9.90
2019-05-23T20:16:49.906Z,24.43
2019-05-23T20:19:19.147Z,18.70
2019-05-23T20:21:48.455Z,13.40
2019-05-23T20:24:17.294Z,8.83
2019-05-23T20:26:46.093Z,8.18
2019-05-23T20:29:15.270Z,14.90
2019-05-23T20:31:47.755Z,15.67
2019-05-23T20:34:14.910Z,19.27
2019-05-23T20:36:43.650Z,10.70
2019-05-23T20:39:11.813Z,8.97
2019-05-23T20:41:41.139Z,7.50
2019-05-23T20:44:10.603Z,7.33
2019-05-23T20:46:39.639Z,8.20
2019-05-23T20:49:09.023Z,8.70
2019-05-23T20:51:37.819Z,7.20
2019-05-23T20:54:06.618Z,15.80
2019-05-23T20:56:35.630Z,24.67
2019-05-23T20:59:05.317Z,20.50
2019-05-23T21:01:38.254Z,16.35
2019-05-23T21:04:07.121Z,22.87
2019-05-23T21:06:36.219Z,21.50
2019-05-23T21:09:07.574Z,61.77
2019-05-23T21:11:36.710Z,85.47
2019-05-23T21:14:05.697Z,58.40
2019-05-23T21:16:34.602Z,53.83
2019-05-23T21:19:03.717Z,32.60
2019-05-23T21:21:32.876Z,16.40
2019-05-23T21:24:01.617Z,11.15
2019-05-23T21:26:30.634Z,10.90
2019-05-23T21:28:59.635Z,14.73
2019-05-23T21:31:28.646Z,11.77
2019-05-23T21:33:57.541Z,8.47
2019-05-23T21:36:26.292Z,8.20
2019-05-23T21:38:55.111Z,8.60
2019-05-23T21:41:23.858Z,11.80
2019-05-23T21:43:54.598Z,11.50
2019-05-23T21:46:23.577Z,19.70
2019-05-23T21:48:52.890Z,15.00
2019-05-23T21:51:21.880Z,21.90
2019-05-23T21:53:50.933Z,24.03
2019-05-23T21:56:19.951Z,14.80
2019-05-23T21:58:48.769Z,15.38
2019-05-23T22:01:37.274Z,13.27
2019-05-23T22:04:34.652Z,12.55
2019-05-23T22:07:07.663Z,10.68
2019-05-23T22:09:36.633Z,8.95
2019-05-23T22:12:06.851Z,8.87
2019-05-23T22:14:36.758Z,8.20
2019-05-23T22:17:06.375Z,11.27
2019-05-23T22:19:35.881Z,9.10
2019-05-23T22:22:05.674Z,8.37
2019-05-23T22:24:34.641Z,7.80
2019-05-23T22:27:04.609Z,9.05
2019-05-23T22:29:33.329Z,7.50
2019-05-23T22:32:02.433Z,8.13
2019-05-23T22:34:38.073Z,8.20
2019-05-23T22:37:19.901Z,8.27
2019-05-23T22:39:49.034Z,8.70
2019-05-23T22:42:19.062Z,8.57
2019-05-23T22:44:48.060Z,9.00
2019-05-23T22:47:17.096Z,8.53
2019-05-23T22:49:45.922Z,9.25
2019-05-23T22:52:14.935Z,9.10
2019-05-23T22:54:43.677Z,9.80
2019-05-23T22:57:13.203Z,7.70
2019-05-23T22:59:42.658Z,8.00
2019-05-23T23:02:16.049Z,7.70
2019-05-23T23:04:45.153Z,8.80
2019-05-23T23:07:14.122Z,8.43
2019-05-23T23:09:42.926Z,8.80
2019-05-23T23:12:12.308Z,8.97
2019-05-23T23:14:41.041Z,9.50
2019-05-23T23:17:09.961Z,9.80
2019-05-23T23:19:39.122Z,9.80
2019-05-23T23:22:10.340Z,8.93
2019-05-23T23:24:39.318Z,8.80
2019-05-23T23:27:08.214Z,9.00
2019-05-23T23:29:37.329Z,9.00
2019-05-23T23:32:06.508Z,8.73
2019-05-23T23:34:35.321Z,9.07
2019-05-23T23:37:04.383Z,8.20
2019-05-23T23:39:33.511Z,8.50
2019-05-23T23:42:02.279Z,8.53
2019-05-23T23:44:36.609Z,9.38
2019-05-23T23:47:24.636Z,9.23
2019-05-23T23:50:11.386Z,8.43
2019-05-23T23:52:58.517Z,8.40
2019-05-23T23:55:45.305Z,9.30
2019-05-23T23:58:13.507Z,8.53
